Private Wetterstation Sandau
Wetterdaten: Woche 25.02.13 - 03.03.13 (KW9)
Datum Zeit Temp. A. Feuchte A. Luftdruck Regen Wind Richtung Taupunkt Windchill
25.02.2013 00:00 1,3 C 95 % 1020,1 hPa 0,0 l/m 4,9 km/h (1 Bft) O-NO 0,6 C 0,2 C
25.02.2013 01:00 1,2 C 95 % 1020,1 hPa 0,0 l/m 5,5 km/h (1 Bft) NO 0,5 C -0,2 C
25.02.2013 02:00 1,2 C 95 % 1020,3 hPa 0,0 l/m 5,2 km/h (1 Bft) O-NO 0,5 C -0,1 C
25.02.2013 03:00 1,3 C 95 % 1020,3 hPa 0,0 l/m 6,4 km/h (2 Bft) O-NO 0,5 C -0,4 C
25.02.2013 04:00 1,2 C 95 % 1020,4 hPa 0,0 l/m 5,0 km/h (1 Bft) NO 0,5 C 0,1 C
25.02.2013 05:00 1,1 C 95 % 1020,9 hPa 0,0 l/m 5,3 km/h (1 Bft) O-NO 0,4 C -0,2 C
25.02.2013 06:00 1,1 C 95 % 1021,1 hPa 0,0 l/m 6,2 km/h (2 Bft) NO 0,4 C -0,8 C
25.02.2013 07:00 1,0 C 95 % 1021,5 hPa 0,5 l/m 4,6 km/h (1 Bft) NO 0,3 C 0,0 C
25.02.2013 08:00 1,0 C 95 % 1021,8 hPa 0,0 l/m 7,3 km/h (2 Bft) O-NO 0,3 C -1,0 C
25.02.2013 09:00 1,1 C 95 % 1022,7 hPa 0,0 l/m 5,6 km/h (1 Bft) NO 0,4 C -0,2 C
25.02.2013 10:00 1,3 C 95 % 1023,1 hPa 0,0 l/m 7,3 km/h (2 Bft) O-NO 0,6 C -0,8 C
25.02.2013 11:00 1,6 C 94 % 1023,4 hPa 0,0 l/m 9,4 km/h (2 Bft) O-NO 0,8 C -0,9 C
25.02.2013 12:00 2,0 C 93 % 1023,6 hPa 0,5 l/m 7,2 km/h (2 Bft) O 0,9 C 0,0 C
25.02.2013 13:00 2,2 C 92 % 1023,8 hPa 0,0 l/m 7,5 km/h (2 Bft) O-NO 1,0 C 0,3 C
25.02.2013 14:00 2,2 C 91 % 1024,1 hPa 0,0 l/m 6,8 km/h (2 Bft) NO 0,9 C 0,5 C
25.02.2013 15:00 2,3 C 90 % 1024,6 hPa 0,0 l/m 6,8 km/h (2 Bft) O-NO 0,9 C 0,7 C
25.02.2013 16:00 2,1 C 90 % 1025,3 hPa 0,0 l/m 7,3 km/h (2 Bft) O-NO 0,6 C 0,1 C
25.02.2013 17:00 1,9 C 91 % 1025,7 hPa 0,0 l/m 5,8 km/h (2 Bft) O-NO 0,6 C 0,6 C
25.02.2013 18:00 1,8 C 91 % 1026,3 hPa 0,0 l/m 6,7 km/h (2 Bft) O-NO 0,5 C 0,1 C
25.02.2013 19:00 1,8 C 91 % 1026,9 hPa 0,0 l/m 5,2 km/h (1 Bft) O-NO 0,5 C 0,6 C
25.02.2013 20:00 1,7 C 92 % 1027,8 hPa 0,0 l/m 4,8 km/h (1 Bft) NO 0,5 C 0,8 C
25.02.2013 21:00 1,6 C 92 % 1028,4 hPa 0,0 l/m 5,1 km/h (1 Bft) O-NO 0,4 C 0,4 C
25.02.2013 22:00 1,6 C 92 % 1029,1 hPa 0,0 l/m 4,9 km/h (1 Bft) O-NO 0,4 C 0,4 C
25.02.2013 23:00 1,5 C 92 % 1029,4 hPa 0,0 l/m 7,6 km/h (2 Bft) O-NO 0,4 C -0,5 C
26.02.2013 00:00 1,3 C 92 % 1029,7 hPa 0,0 l/m 4,7 km/h (1 Bft) O-NO 0,2 C 0,4 C
26.02.2013 01:00 1,3 C 93 % 1030,0 hPa 0,0 l/m 5,0 km/h (1 Bft) NO 0,2 C 0,2 C
26.02.2013 02:00 1,3 C 92 % 1030,3 hPa 0,0 l/m 3,5 km/h (1 Bft) NO 0,2 C 1,1 C
26.02.2013 03:00 1,3 C 92 % 1030,8 hPa 0,0 l/m 5,0 km/h (1 Bft) O-NO 0,1 C 0,2 C
26.02.2013 04:00 1,3 C 92 % 1031,0 hPa 0,0 l/m 3,2 km/h (1 Bft) NO 0,1 C 1,0 C
26.02.2013 05:00 1,3 C 92 % 1031,2 hPa 0,0 l/m 3,1 km/h (1 Bft) NO 0,1 C 1,0 C
26.02.2013 06:00 1,2 C 92 % 1031,5 hPa 0,0 l/m 2,2 km/h (1 Bft) N-NO 0,1 C 1,2 C
26.02.2013 07:00 1,2 C 93 % 1032,1 hPa 0,0 l/m 3,3 km/h (1 Bft) NO 0,2 C 0,8 C
26.02.2013 08:00 1,3 C 93 % 1032,7 hPa 0,0 l/m 4,0 km/h (1 Bft) O-NO 0,2 C 0,6 C
26.02.2013 09:00 1,2 C 92 % 1033,1 hPa 0,0 l/m 4,9 km/h (1 Bft) NO 0,0 C 0,1 C
26.02.2013 10:00 1,1 C 92 % 1033,4 hPa 0,0 l/m 6,8 km/h (2 Bft) NO -0,1 C -0,8 C
26.02.2013 11:00 1,2 C 91 % 1033,7 hPa 0,0 l/m 8,0 km/h (2 Bft) NO -0,1 C -1,1 C
26.02.2013 12:00 1,3 C 91 % 1033,5 hPa 0,0 l/m 7,8 km/h (2 Bft) O-NO -0,1 C -0,9 C
26.02.2013 13:00 1,3 C 90 % 1033,2 hPa 0,0 l/m 6,8 km/h (2 Bft) NO -0,2 C -0,3 C
26.02.2013 14:00 1,4 C 90 % 1033,1 hPa 0,0 l/m 6,7 km/h (2 Bft) O-NO -0,1 C -0,4 C
26.02.2013 15:00 1,5 C 90 % 1032,9 hPa 0,0 l/m 5,6 km/h (1 Bft) NO 0,1 C 0,5 C
26.02.2013 16:00 1,6 C 90 % 1032,9 hPa 0,0 l/m 4,5 km/h (1 Bft) NO 0,1 C 0,6 C
26.02.2013 17:00 1,5 C 90 % 1033,1 hPa 0,0 l/m 7,6 km/h (2 Bft) O-NO 0,0 C -0,7 C
26.02.2013 18:00 1,3 C 90 % 1033,5 hPa 0,0 l/m 10,9 km/h (2 Bft) O-NO -0,2 C -1,9 C
26.02.2013 19:00 1,3 C 90 % 1033,7 hPa 0,0 l/m 6,1 km/h (2 Bft) O-NO -0,2 C -0,5 C
26.02.2013 20:00 1,2 C 90 % 1033,7 hPa 0,0 l/m 5,9 km/h (2 Bft) NO -0,2 C -0,2 C
26.02.2013 21:00 1,1 C 90 % 1034,2 hPa 0,0 l/m 6,5 km/h (2 Bft) O-NO -0,3 C -0,6 C
26.02.2013 22:00 1,1 C 90 % 1034,3 hPa 0,0 l/m 4,9 km/h (1 Bft) NO -0,4 C 0,0 C
26.02.2013 23:00 1,0 C 91 % 1034,3 hPa 0,0 l/m 3,6 km/h (1 Bft) NO -0,3 C 0,5 C
27.02.2013 00:00 0,9 C 91 % 1034,3 hPa 0,0 l/m 2,8 km/h (1 Bft) NO -0,4 C 0,4 C
27.02.2013 01:00 0,9 C 91 % 1034,4 hPa 0,0 l/m 3,4 km/h (1 Bft) NO -0,4 C 0,4 C
27.02.2013 02:00 0,8 C 92 % 1034,4 hPa 0,0 l/m 2,8 km/h (1 Bft) NO -0,3 C 0,6 C
27.02.2013 03:00 0,8 C 92 % 1034,1 hPa 0,0 l/m 1,1 km/h (1 Bft) N-NO -0,3 C 0,8 C
27.02.2013 04:00 0,8 C 92 % 1034,0 hPa 0,5 l/m 2,3 km/h (1 Bft) NO -0,3 C 0,7 C
27.02.2013 05:00 0,9 C 92 % 1033,9 hPa 0,0 l/m 2,8 km/h (1 Bft) NO -0,3 C 0,6 C
27.02.2013 06:00 0,9 C 91 % 1033,7 hPa 0,0 l/m 2,8 km/h (1 Bft) NO -0,4 C 0,7 C
27.02.2013 07:00 0,9 C 91 % 1034,0 hPa 0,0 l/m 3,2 km/h (1 Bft) O-NO -0,4 C 0,7 C
27.02.2013 08:00 1,0 C 91 % 1034,3 hPa 0,0 l/m 2,0 km/h (1 Bft) NO -0,3 C 1,0 C
27.02.2013 09:00 1,3 C 91 % 1034,4 hPa 0,0 l/m 1,9 km/h (1 Bft) O-NO -0,0 C 1,2 C
27.02.2013 10:00 1,6 C 91 % 1034,5 hPa 0,0 l/m 2,7 km/h (1 Bft) NO 0,2 C 1,3 C
27.02.2013 11:00 1,9 C 90 % 1034,3 hPa 0,0 l/m 2,5 km/h (1 Bft) NO 0,4 C 1,5 C
27.02.2013 12:00 2,5 C 87 % 1033,9 hPa 0,0 l/m 2,1 km/h (1 Bft) N-NO 0,6 C 2,3 C
27.02.2013 13:00 3,7 C 83 % 1033,5 hPa 0,0 l/m 1,5 km/h (1 Bft) W-SW 1,1 C 3,7 C
27.02.2013 14:00 3,9 C 82 % 1033,3 hPa 0,0 l/m 0,4 km/h (0 Bft) W-SW 1,1 C 3,9 C
27.02.2013 15:00 3,4 C 82 % 1033,1 hPa 0,0 l/m 1,4 km/h (1 Bft) O 0,7 C 3,4 C
27.02.2013 16:00 3,2 C 83 % 1033,0 hPa 0,0 l/m 0,5 km/h (0 Bft) NO 0,6 C 3,2 C
27.02.2013 17:00 2,9 C 84 % 1033,0 hPa 0,0 l/m 0,9 km/h (0 Bft) N-NO 0,6 C 2,9 C
27.02.2013 18:00 2,6 C 86 % 1033,0 hPa 0,0 l/m 0,4 km/h (0 Bft) N-NO 0,5 C 2,6 C
27.02.2013 19:00 2,4 C 86 % 1032,9 hPa 0,0 l/m 0,1 km/h (0 Bft) NO 0,4 C 2,4 C
27.02.2013 20:00 2,3 C 87 % 1032,7 hPa 0,0 l/m 0,0 km/h (0 Bft) N 0,4 C 2,3 C
27.02.2013 21:00 2,1 C 88 % 1032,6 hPa 0,0 l/m 0,0 km/h (0 Bft) N 0,3 C 2,1 C
27.02.2013 22:00 1,9 C 89 % 1032,8 hPa 0,0 l/m 0,2 km/h (0 Bft) NO 0,2 C 1,9 C
27.02.2013 23:00 1,8 C 89 % 1032,7 hPa 0,0 l/m 0,7 km/h (0 Bft) W 0,2 C 1,8 C
28.02.2013 00:00 1,8 C 90 % 1032,6 hPa 0,0 l/m 1,1 km/h (1 Bft) W-SW 0,3 C 1,6 C
28.02.2013 01:00 1,5 C 90 % 1032,2 hPa 0,0 l/m 0,6 km/h (0 Bft) W 0,0 C 1,5 C
28.02.2013 02:00 0,3 C 89 % 1031,6 hPa 0,0 l/m 0,0 km/h (0 Bft) N -1,3 C 0,3 C
28.02.2013 03:00 -0,5 C 90 % 1031,1 hPa 0,0 l/m 0,0 km/h (0 Bft) N -1,9 C -0,5 C
28.02.2013 04:00 -0,9 C 90 % 1030,6 hPa 0,0 l/m 0,0 km/h (0 Bft) N -2,3 C -0,9 C
28.02.2013 05:00 -1,1 C 91 % 1030,3 hPa 0,0 l/m 0,3 km/h (0 Bft) W-SW -2,4 C -1,1 C
28.02.2013 06:00 -1,3 C 91 % 1029,9 hPa 0,0 l/m 0,8 km/h (0 Bft) W -2,6 C -1,3 C
28.02.2013 07:00 -0,9 C 92 % 1029,6 hPa 0,0 l/m 1,5 km/h (1 Bft) W-SW -2,1 C -0,9 C
28.02.2013 08:00 0,0 C 92 % 1029,7 hPa 0,0 l/m 3,2 km/h (1 Bft) W-SW -1,1 C -0,6 C
28.02.2013 09:00 1,1 C 93 % 1029,6 hPa 0,0 l/m 4,8 km/h (1 Bft) W-SW 0,0 C 0,0 C
28.02.2013 10:00 2,3 C 91 % 1029,3 hPa 0,0 l/m 7,4 km/h (2 Bft) W-SW 0,9 C 0,4 C
28.02.2013 11:00 3,5 C 87 % 1028,9 hPa 0,0 l/m 9,9 km/h (2 Bft) W-SW 1,5 C 1,1 C
28.02.2013 12:00 4,8 C 81 % 1028,3 hPa 0,0 l/m 12,1 km/h (2 Bft) NW 1,9 C 2,1 C
28.02.2013 13:00 5,3 C 77 % 1027,2 hPa 0,0 l/m 12,3 km/h (3 Bft) W-SW 1,6 C 2,8 C
28.02.2013 14:00 5,9 C 74 % 1026,3 hPa 0,0 l/m 14,5 km/h (3 Bft) W 1,6 C 3,1 C
28.02.2013 15:00 5,5 C 75 % 1025,7 hPa 0,0 l/m 13,3 km/h (3 Bft) W-SW 1,3 C 2,7 C
28.02.2013 16:00 5,0 C 76 % 1025,1 hPa 0,0 l/m 12,6 km/h (3 Bft) W-SW 1,1 C 2,3 C
28.02.2013 17:00 3,9 C 79 % 1024,4 hPa 0,0 l/m 8,3 km/h (2 Bft) W-SW 0,7 C 1,9 C
28.02.2013 18:00 2,7 C 83 % 1024,1 hPa 0,0 l/m 9,1 km/h (2 Bft) W-SW 0,1 C 0,3 C
28.02.2013 19:00 1,7 C 85 % 1024,0 hPa 0,0 l/m 6,6 km/h (2 Bft) NW -0,5 C -0,1 C
28.02.2013 20:00 0,8 C 88 % 1023,9 hPa 0,0 l/m 6,8 km/h (2 Bft) NO -0,9 C -1,3 C
28.02.2013 21:00 0,7 C 89 % 1023,6 hPa 0,0 l/m 8,0 km/h (2 Bft) W-NW -0,9 C -1,6 C
28.02.2013 22:00 0,9 C 91 % 1023,3 hPa 0,0 l/m 8,4 km/h (2 Bft) W -0,5 C -1,5 C
28.02.2013 23:00 1,2 C 92 % 1023,0 hPa 0,0 l/m 11,0 km/h (2 Bft) W -0,0 C -1,9 C
01.03.2013 00:00 1,6 C 93 % 1022,6 hPa 0,0 l/m 7,7 km/h (2 Bft) W-SW 0,5 C -0,5 C
01.03.2013 01:00 1,9 C 93 % 1022,0 hPa 0,0 l/m 12,2 km/h (2 Bft) W 0,9 C -1,3 C
01.03.2013 02:00 2,2 C 94 % 1021,6 hPa 0,0 l/m 7,8 km/h (2 Bft) W-NW 1,3 C 0,3 C
01.03.2013 03:00 2,8 C 94 % 1021,4 hPa 0,0 l/m 7,0 km/h (2 Bft) NW 1,9 C 1,2 C
01.03.2013 04:00 2,9 C 93 % 1021,1 hPa 0,0 l/m 5,0 km/h (1 Bft) NW 1,9 C 2,0 C
01.03.2013 05:00 2,8 C 91 % 1021,1 hPa 0,0 l/m 6,6 km/h (2 Bft) W-NW 1,5 C 1,3 C
01.03.2013 06:00 2,7 C 89 % 1020,9 hPa 0,0 l/m 7,6 km/h (2 Bft) NW 1,1 C 0,8 C
01.03.2013 07:00 2,6 C 88 % 1021,2 hPa 0,0 l/m 6,3 km/h (2 Bft) NW 0,8 C 1,0 C
01.03.2013 08:00 2,5 C 87 % 1021,8 hPa 0,0 l/m 7,4 km/h (2 Bft) NW 0,5 C 0,5 C
01.03.2013 09:00 2,6 C 86 % 1022,1 hPa 0,0 l/m 8,8 km/h (2 Bft) NW 0,5 C 0,4 C
01.03.2013 10:00 3,0 C 84 % 1022,4 hPa 0,0 l/m 8,1 km/h (2 Bft) NW 0,6 C 1,0 C
01.03.2013 11:00 3,6 C 83 % 1022,8 hPa 0,0 l/m 8,3 km/h (2 Bft) NW 0,9 C 1,8 C
01.03.2013 12:00 4,1 C 80 % 1022,9 hPa 0,0 l/m 8,9 km/h (2 Bft) N-NW 1,1 C 2,0 C
01.03.2013 13:00 5,2 C 77 % 1022,7 hPa 0,0 l/m 7,9 km/h (2 Bft) N-NW 1,5 C 3,7 C
01.03.2013 14:00 5,9 C 73 % 1022,5 hPa 0,0 l/m 6,7 km/h (2 Bft) NO 1,5 C 4,7 C
01.03.2013 15:00 6,2 C 73 % 1022,7 hPa 0,0 l/m 8,1 km/h (2 Bft) N-NO 1,6 C 4,6 C
01.03.2013 16:00 5,8 C 74 % 1022,8 hPa 0,0 l/m 5,7 km/h (1 Bft) N-NW 1,5 C 4,9 C
01.03.2013 17:00 4,4 C 78 % 1022,8 hPa 0,0 l/m 2,9 km/h (1 Bft) NW 0,9 C 4,2 C
01.03.2013 18:00 2,6 C 81 % 1023,5 hPa 0,0 l/m 1,7 km/h (1 Bft) NW -0,4 C 2,5 C
01.03.2013 19:00 1,3 C 84 % 1023,8 hPa 0,0 l/m 1,6 km/h (1 Bft) NW -1,2 C 1,3 C
01.03.2013 20:00 0,7 C 86 % 1024,0 hPa 0,0 l/m 2,1 km/h (1 Bft) W-NW -1,3 C 0,5 C
01.03.2013 21:00 0,2 C 88 % 1024,6 hPa 0,0 l/m 1,7 km/h (1 Bft) W-NW -1,6 C 0,2 C
01.03.2013 22:00 -0,3 C 88 % 1024,9 hPa 0,0 l/m 1,4 km/h (1 Bft) W -1,9 C -0,3 C
01.03.2013 23:00 -0,6 C 90 % 1025,1 hPa 0,0 l/m 3,5 km/h (1 Bft) NW -2,1 C -1,0 C
02.03.2013 00:00 -0,8 C 90 % 1025,1 hPa 0,0 l/m 2,7 km/h (1 Bft) W -2,2 C -0,8 C
02.03.2013 01:00 -1,0 C 90 % 1025,2 hPa 0,0 l/m 2,8 km/h (1 Bft) NW -2,5 C -1,2 C
02.03.2013 02:00 -1,4 C 90 % 1025,0 hPa 0,0 l/m 1,1 km/h (1 Bft) W-NW -2,8 C -1,4 C
02.03.2013 03:00 -1,4 C 91 % 1024,8 hPa 0,0 l/m 2,4 km/h (1 Bft) W -2,7 C -1,4 C
02.03.2013 04:00 -1,5 C 91 % 1025,0 hPa 0,0 l/m 2,6 km/h (1 Bft) W-NW -2,8 C -2,0 C
02.03.2013 05:00 -1,6 C 91 % 1025,0 hPa 0,0 l/m 2,9 km/h (1 Bft) W-NW -2,9 C -2,1 C
02.03.2013 06:00 -1,8 C 91 % 1024,7 hPa 0,0 l/m 2,3 km/h (1 Bft) W -3,1 C -2,1 C
02.03.2013 07:00 -1,7 C 92 % 1024,8 hPa 0,0 l/m 2,7 km/h (1 Bft) W -2,8 C -1,8 C
02.03.2013 08:00 -0,3 C 92 % 1024,8 hPa 0,0 l/m 4,3 km/h (1 Bft) W-NW -1,5 C -1,4 C
02.03.2013 09:00 0,7 C 92 % 1024,9 hPa 0,0 l/m 7,8 km/h (2 Bft) W-NW -0,5 C -1,5 C
02.03.2013 10:00 2,3 C 88 % 1024,8 hPa 0,0 l/m 6,4 km/h (2 Bft) NW 0,5 C 0,7 C
02.03.2013 11:00 3,7 C 82 % 1024,7 hPa 0,0 l/m 8,9 km/h (2 Bft) W 1,0 C 1,7 C
02.03.2013 12:00 4,8 C 76 % 1024,4 hPa 0,0 l/m 12,6 km/h (3 Bft) W-NW 0,9 C 2,2 C
02.03.2013 13:00 5,7 C 70 % 1023,6 hPa 0,0 l/m 14,6 km/h (3 Bft) W 0,6 C 2,8 C
02.03.2013 14:00 6,6 C 64 % 1022,6 hPa 0,0 l/m 13,9 km/h (3 Bft) W 0,3 C 4,1 C
02.03.2013 15:00 6,9 C 60 % 1021,7 hPa 0,0 l/m 12,7 km/h (3 Bft) W -0,3 C 4,6 C
02.03.2013 16:00 6,3 C 61 % 1020,8 hPa 0,0 l/m 16,4 km/h (3 Bft) W-SW -0,7 C 3,3 C
02.03.2013 17:00 4,9 C 65 % 1020,2 hPa 0,0 l/m 10,5 km/h (2 Bft) W -1,1 C 2,6 C
02.03.2013 18:00 3,0 C 74 % 1020,4 hPa 0,0 l/m 9,4 km/h (2 Bft) N-NO -1,2 C 0,7 C
02.03.2013 19:00 1,1 C 81 % 1020,6 hPa 0,0 l/m 11,5 km/h (2 Bft) W-NW -1,8 C -2,2 C
02.03.2013 20:00 0,9 C 83 % 1020,3 hPa 0,0 l/m 7,7 km/h (2 Bft) W -1,7 C -1,2 C
02.03.2013 21:00 1,5 C 81 % 1019,8 hPa 0,0 l/m 8,7 km/h (2 Bft) W-SW -1,4 C -1,0 C
02.03.2013 22:00 1,5 C 82 % 1019,3 hPa 0,0 l/m 13,7 km/h (3 Bft) W -1,2 C -2,0 C
02.03.2013 23:00 1,6 C 82 % 1019,1 hPa 0,0 l/m 12,1 km/h (2 Bft) W-NW -1,1 C -1,6 C
03.03.2013 00:00 1,9 C 82 % 1019,0 hPa 0,0 l/m 14,3 km/h (3 Bft) W -0,8 C -1,6 C
03.03.2013 01:00 1,8 C 84 % 1019,0 hPa 0,0 l/m 10,3 km/h (2 Bft) W -0,6 C -1,1 C
03.03.2013 02:00 1,6 C 87 % 1018,6 hPa 0,0 l/m 11,0 km/h (2 Bft) W -0,3 C -1,5 C
03.03.2013 03:00 1,7 C 89 % 1018,4 hPa 0,0 l/m 8,9 km/h (2 Bft) W-SW 0,1 C -0,8 C
03.03.2013 04:00 1,7 C 90 % 1018,4 hPa 0,0 l/m 10,3 km/h (2 Bft) W 0,3 C -1,0 C
03.03.2013 05:00 1,8 C 91 % 1018,4 hPa 0,0 l/m 11,7 km/h (2 Bft) W 0,5 C -1,2 C
03.03.2013 06:00 1,6 C 91 % 1018,4 hPa 0,0 l/m 8,7 km/h (2 Bft) W-NW 0,3 C -0,8 C
03.03.2013 07:00 2,1 C 88 % 1019,0 hPa 0,0 l/m 11,1 km/h (2 Bft) NW 0,3 C -0,8 C
03.03.2013 08:00 2,7 C 81 % 1019,5 hPa 0,0 l/m 9,2 km/h (2 Bft) N-NO -0,3 C 0,3 C
03.03.2013 09:00 3,2 C 79 % 1019,9 hPa 0,0 l/m 9,8 km/h (2 Bft) N-NW -0,1 C 0,9 C
03.03.2013 10:00 3,8 C 77 % 1020,3 hPa 0,0 l/m 8,0 km/h (2 Bft) N-NW 0,1 C 1,8 C
03.03.2013 11:00 4,6 C 74 % 1020,6 hPa 0,0 l/m 8,9 km/h (2 Bft) NW 0,3 C 2,4 C
03.03.2013 12:00 5,2 C 70 % 1021,1 hPa 0,0 l/m 8,4 km/h (2 Bft) W 0,2 C 3,5 C
03.03.2013 13:00 5,8 C 68 % 1021,1 hPa 0,0 l/m 8,1 km/h (2 Bft) NW 0,3 C 4,2 C
03.03.2013 14:00 6,3 C 65 % 1021,1 hPa 0,0 l/m 7,8 km/h (2 Bft) N-NO 0,2 C 4,9 C
03.03.2013 15:00 7,0 C 62 % 1021,3 hPa 0,0 l/m 6,9 km/h (2 Bft) N-NW 0,2 C 5,9 C
03.03.2013 16:00 6,1 C 65 % 1021,4 hPa 0,0 l/m 8,4 km/h (2 Bft) NW -0,1 C 4,3 C
03.03.2013 17:00 4,9 C 69 % 1021,8 hPa 0,0 l/m 5,7 km/h (1 Bft) W-NW -0,3 C 4,0 C
03.03.2013 18:00 3,5 C 73 % 1022,1 hPa 0,0 l/m 2,1 km/h (1 Bft) W -0,8 C 3,5 C
03.03.2013 19:00 2,5 C 76 % 1022,4 hPa 0,0 l/m 2,3 km/h (1 Bft) W-NW -1,3 C 2,3 C
03.03.2013 20:00 1,7 C 78 % 1022,8 hPa 0,0 l/m 0,6 km/h (0 Bft) W-NW -1,7 C 1,7 C
03.03.2013 21:00 0,9 C 81 % 1023,4 hPa 0,0 l/m 0,6 km/h (0 Bft) N-NW -1,9 C 0,9 C
03.03.2013 22:00 0,4 C 83 % 1023,9 hPa 0,0 l/m 0,9 km/h (0 Bft) W -2,2 C 0,4 C
03.03.2013 23:00 -0,2 C 84 % 1024,0 hPa 0,0 l/m 0,9 km/h (0 Bft) W-SW -2,6 C -0,2 C
Min-Datum _ 02.03.13 02.03.13 03.03.13 - 25.02.13 - 02.03.13 02.03.13
_ Min-Zeit 06:46 16:01 03:46 - 00:31 - 06:46 20:11
Minimum _ -1,9 C 59 % 1018,1 hPa - 0,0 km/h (0 Bft) - -3,2 C -4,0 C
Max-Datum _ 03.03.13 25.02.13 27.02.13 25.02.13 02.03.13 - 28.02.13 03.03.13
_ Max-Zeit 15:06 00:01 10:41 07:31 13:36 - 12:31 15:11
Maximum _ 7,3 C 95 % 1034,7 hPa 0,5 l/m 30,6 km/h
W (5 Bft)
- 2,1 C 7,3 C
Durchschnitt _ 2,0 C 86 % 1026,3 hPa #1,6 l/m 5,8 km/h (2 Bft) NO -0,1 C 0,7 C
(c) by David Heller